Weather History for Winona, MN

Change the Weather History Date:

Wednesday, November 16, 2011

  Actual Average Record
Temperature  
Mean Temperature 30 °F -  
Max Temperature 35 °F 41 °F 62 °F (2001)
Min Temperature 26 °F 25 °F 14 °F (1997)
Degree Days  
Heating Degree Days 34    
Moisture  
Dew Point 12 °F    
Average Humidity 47    
Maximum Humidity 64    
Minimum Humidity 26    
Precipitation  
Precipitation 0.00 in - - ()
Sea Level Pressure  
Sea Level Pressure 30.05 in    
Wind  
Wind Speed 11 mph (WNW)    
Max Wind Speed 20 mph    
Max Gust Speed 26 mph    
Visibility 10 miles    
Events      
Averages and records for this station are not official NWS values.
T = Trace of Precipitation, MM = Missing Value Source: NWS Daily Summary

Daily Weather History Graph

Daily Weather History Graph

Search for Another Location

Airport:

Trip Planner

Search our weather history database for the weather conditions in past years. The results will help you decide how hot, cold, wet, or windy it might be!

Date:

Astronomy

Nov. 16, 2011 Rise Set
Actual Time 7:03 AM CST 4:39 PM CST
Civil Twilight 6:31 AM CST 5:10 PM CST
Nautical Twilight 5:56 AM CST 5:45 PM CST
Astronomical Twilight 5:22 AM CST 6:20 PM CST
Moon 9:55 PM CST (11/16) 11:38 AM CST (11/16)
Length of Visible Light 10h 39m
Length of Day
9h 36m
Waning Gibbous, 70% of the Moon is Illuminated
Nov 16
Waning Gibbous
Nov 18
Last Quarter
Nov 25
New
Dec 2
First Quarter
Dec 10
Full

Hourly Weather History & Observations

Time (CST) Temp. Windchill Dew Point Humidity Pressure Visibility Wind Dir Wind Speed Gust Speed Precip Events Conditions
12:15 AM 32.0 °F 24.2 °F 15.8 °F 51% 29.93 in 10.0 mi WNW 9.2 mph - N/A   Clear
12:35 AM 32.0 °F 23.0 °F 17.6 °F 55% 29.93 in 10.0 mi WNW 11.5 mph 18.4 mph N/A   Clear
12:54 AM 32.0 °F 21.2 °F 14.0 °F 48% 29.94 in 10.0 mi WNW 16.1 mph 24.2 mph N/A   Clear
1:15 AM 32.0 °F 22.5 °F 14.0 °F 48% 29.94 in 10.0 mi WNW 12.7 mph 18.4 mph N/A   Clear
1:35 AM 28.4 °F 17.0 °F 14.0 °F 55% 29.95 in 10.0 mi WNW 15.0 mph 19.6 mph N/A   Clear
1:54 AM 28.4 °F 18.0 °F 14.0 °F 55% 29.96 in 10.0 mi WNW 12.7 mph 21.9 mph N/A   Clear
2:15 AM 28.4 °F 18.0 °F 14.0 °F 55% 29.96 in 10.0 mi West 12.7 mph 18.4 mph N/A   Clear
2:35 AM 28.4 °F 18.5 °F 14.0 °F 55% 29.97 in 10.0 mi West 11.5 mph 19.6 mph N/A   Clear
2:54 AM 28.4 °F 18.5 °F 14.0 °F 55% 29.97 in 10.0 mi WNW 11.5 mph 20.7 mph N/A   Clear
3:15 AM 28.4 °F 17.5 °F 14.0 °F 55% 29.97 in 10.0 mi WNW 13.8 mph 19.6 mph N/A   Clear
3:35 AM 28.4 °F 19.1 °F 14.0 °F 55% 29.97 in 10.0 mi West 10.4 mph 18.4 mph N/A   Clear
3:54 AM 28.4 °F 17.0 °F 12.2 °F 51% 29.98 in 10.0 mi WNW 15.0 mph 20.7 mph N/A   Clear
4:15 AM 26.6 °F 15.2 °F 12.2 °F 55% 29.98 in 10.0 mi WNW 13.8 mph 20.7 mph N/A   Clear
4:35 AM 26.6 °F 16.2 °F 12.2 °F 55% 29.99 in 10.0 mi WNW 11.5 mph 18.4 mph N/A   Clear
4:54 AM 26.6 °F 16.2 °F 12.2 °F 55% 29.99 in 10.0 mi WNW 11.5 mph 19.6 mph N/A   Clear
5:15 AM 26.6 °F 18.2 °F 12.2 °F 55% 30.00 in 10.0 mi WNW 8.1 mph - N/A   Clear
5:35 AM 26.6 °F 16.8 °F 12.2 °F 55% 30.01 in 10.0 mi West 10.4 mph 16.1 mph N/A   Clear
6:15 AM 26.6 °F 16.2 °F 14.0 °F 59% 30.02 in 10.0 mi West 11.5 mph 17.3 mph N/A   Clear
6:35 AM 26.6 °F 16.8 °F 14.0 °F 59% 30.02 in 10.0 mi West 10.4 mph 17.3 mph N/A   Clear
6:54 AM 26.6 °F 17.5 °F 14.0 °F 59% 30.03 in 10.0 mi West 9.2 mph - N/A   Clear
7:15 AM 26.6 °F 21.2 °F 14.0 °F 59% 30.04 in 10.0 mi NW 4.6 mph - N/A   Clear
7:34 AM 26.6 °F - 15.8 °F 64% 30.05 in 10.0 mi Calm Calm - N/A   Clear
7:55 AM 26.6 °F 19.1 °F 15.8 °F 64% 30.06 in 10.0 mi NW 6.9 mph - N/A   Clear
8:15 AM 26.6 °F 17.5 °F 14.0 °F 59% 30.07 in 10.0 mi WNW 9.2 mph - N/A   Clear
8:35 AM 26.6 °F 18.2 °F 14.0 °F 59% 30.08 in 10.0 mi WNW 8.1 mph - N/A   Clear
8:55 AM 28.4 °F 19.7 °F 14.0 °F 55% 30.09 in 10.0 mi WNW 9.2 mph - N/A   Clear
9:15 AM 28.4 °F 20.4 °F 15.8 °F 59% 30.10 in 10.0 mi WNW 8.1 mph - N/A   Clear
9:35 AM 30.2 °F 22.6 °F 15.8 °F 55% 30.10 in 10.0 mi WNW 8.1 mph - N/A   Clear
9:55 AM 32.0 °F 24.8 °F 14.0 °F 48% 30.10 in 10.0 mi WNW 8.1 mph - N/A   Clear
10:15 AM 32.0 °F 23.6 °F 14.0 °F 48% 30.10 in 10.0 mi WNW 10.4 mph - N/A   Clear
10:35 AM 32.0 °F 24.2 °F 12.2 °F 44% 30.11 in 10.0 mi NW 9.2 mph - N/A   Clear
10:55 AM 32.0 °F 24.8 °F 14.0 °F 48% 30.11 in 10.0 mi NW 8.1 mph - N/A   Clear
11:14 AM 32.0 °F 24.8 °F 14.0 °F 48% 30.10 in 10.0 mi WNW 8.1 mph 19.6 mph N/A   Clear
11:35 AM 32.0 °F 25.6 °F 12.2 °F 44% 30.10 in 10.0 mi NW 6.9 mph - N/A   Clear
11:55 AM 32.0 °F 23.6 °F 12.2 °F 44% 30.09 in 10.0 mi WNW 10.4 mph - N/A   Clear
12:14 PM 33.8 °F 26.4 °F 12.2 °F 41% 30.08 in 10.0 mi NW 9.2 mph - N/A   Clear
12:35 PM 35.6 °F 27.5 °F 12.2 °F 38% 30.08 in 10.0 mi WNW 11.5 mph 17.3 mph N/A   Clear
12:55 PM 35.6 °F 26.6 °F 12.2 °F 38% 30.07 in 10.0 mi NW 13.8 mph 20.7 mph N/A   Clear
1:14 PM 35.6 °F 28.6 °F 12.2 °F 38% 30.07 in 10.0 mi West 9.2 mph - N/A   Scattered Clouds
1:35 PM 35.6 °F 27.1 °F 10.4 °F 35% 30.07 in 10.0 mi West 12.7 mph 23.0 mph N/A   Scattered Clouds
1:55 PM 35.6 °F 26.2 °F 10.4 °F 35% 30.06 in 10.0 mi NW 15.0 mph 23.0 mph N/A   Clear
2:15 PM 35.6 °F 26.2 °F 8.6 °F 33% 30.05 in 10.0 mi West 15.0 mph 26.5 mph N/A   Clear
2:35 PM 35.6 °F 27.5 °F 6.8 °F 30% 30.05 in 10.0 mi West 11.5 mph 19.6 mph N/A   Clear
2:55 PM 35.6 °F 28.0 °F 5.0 °F 28% 30.04 in 10.0 mi WNW 10.4 mph 21.9 mph N/A   Clear
3:15 PM 35.6 °F 24.8 °F 3.2 °F 26% 30.05 in 10.0 mi WNW 19.6 mph 26.5 mph N/A   Clear
3:35 PM 35.6 °F 27.1 °F 3.2 °F 26% 30.05 in 10.0 mi WNW 12.7 mph 19.6 mph N/A   Clear
3:54 PM 35.6 °F 26.6 °F 5.0 °F 28% 30.06 in 10.0 mi West 13.8 mph 20.7 mph N/A   Clear
4:15 PM 35.6 °F 27.5 °F 6.8 °F 30% 30.07 in 10.0 mi WNW 11.5 mph 17.3 mph N/A   Clear
4:35 PM 33.8 °F 23.5 °F 6.8 °F 32% 30.07 in 10.0 mi WNW 16.1 mph 25.3 mph N/A   Clear
5:15 PM 32.0 °F 24.2 °F 8.6 °F 38% 30.08 in 10.0 mi WNW 9.2 mph - N/A   Clear
5:35 PM 32.0 °F 24.2 °F 10.4 °F 41% 30.08 in 10.0 mi NW 9.2 mph - N/A   Clear
5:54 PM 32.0 °F 25.6 °F 10.4 °F 41% 30.09 in 10.0 mi NW 6.9 mph - N/A   Clear
6:15 PM 32.0 °F 23.6 °F 12.2 °F 44% 30.10 in 10.0 mi WNW 10.4 mph - N/A   Clear
6:35 PM 32.0 °F 24.8 °F 12.2 °F 44% 30.11 in 10.0 mi WNW 8.1 mph - N/A   Scattered Clouds
6:55 PM 32.0 °F 20.8 °F 14.0 °F 48% 30.12 in 10.0 mi NW 17.3 mph 21.9 mph N/A   Scattered Clouds
7:34 PM 28.4 °F 18.0 °F 12.2 °F 51% 30.13 in 10.0 mi NW 12.7 mph 19.6 mph N/A   Clear
7:55 PM 28.4 °F 16.2 °F 12.2 °F 51% 30.13 in 10.0 mi NW 17.3 mph - N/A   Clear
8:15 PM 28.4 °F 19.1 °F 10.4 °F 47% 30.14 in 10.0 mi WNW 10.4 mph - N/A   Clear
8:55 PM 26.6 °F 18.2 °F 10.4 °F 51% 30.14 in 10.0 mi WNW 8.1 mph - N/A   Clear
9:15 PM 26.6 °F 18.2 °F 10.4 °F 51% 30.14 in 10.0 mi WNW 8.1 mph - N/A   Clear
9:35 PM 26.6 °F 18.2 °F 10.4 °F 51% 30.14 in 10.0 mi WNW 8.1 mph - N/A   Clear
9:55 PM 26.6 °F 18.2 °F 12.2 °F 55% 30.14 in 10.0 mi WNW 8.1 mph - N/A   Clear
10:15 PM 26.6 °F 18.2 °F 12.2 °F 55% 30.14 in 10.0 mi WNW 8.1 mph - N/A   Clear
10:34 PM 26.6 °F 16.8 °F 12.2 °F 55% 30.14 in 10.0 mi WNW 10.4 mph - N/A   Clear
10:55 PM 26.6 °F 18.2 °F 12.2 °F 55% 30.14 in 10.0 mi WNW 8.1 mph - N/A   Clear
11:15 PM 26.6 °F 16.8 °F 10.4 °F 51% 30.14 in 10.0 mi WNW 10.4 mph - N/A   Clear
11:34 PM 23.0 °F 11.7 °F 10.4 °F 59% 30.14 in 10.0 mi WNW 11.5 mph 18.4 mph N/A   Clear
11:55 PM 23.0 °F 13.9 °F 10.4 °F 59% 30.14 in 10.0 mi WNW 8.1 mph - N/A   Clear